sensor_id;sensor_type;location;lat;lon;timestamp;pressure;altitude;pressure_sealevel;temperature;humidity
61880;BME280;47817;52.798;27.544;2023-04-07T00:01:06;1021.4;;;12.7;71.3
61880;BME280;47817;52.798;27.544;2023-04-07T00:06:40;1021.4;;;12.8;71.1
61880;BME280;47817;52.798;27.544;2023-04-07T00:11:12;1021.4;;;12.8;71
61880;BME280;47817;52.798;27.544;2023-04-07T00:16:32;1021.4;;;12.7;71.1
61880;BME280;47817;52.798;27.544;2023-04-07T00:21:12;1021.4;;;12.5;71.2
61880;BME280;47817;52.798;27.544;2023-04-07T00:26:06;1021.4;;;12.3;71.4
61880;BME280;47817;52.798;27.544;2023-04-07T00:31:40;1021.4;;;12.2;71.8
61880;BME280;47817;52.798;27.544;2023-04-07T00:36:02;1021.4;;;12;72.1
61880;BME280;47817;52.798;27.544;2023-04-07T00:40:56;1021.4;;;11.9;72.3
61880;BME280;47817;52.798;27.544;2023-04-07T00:46:12;1021.4;;;11.8;72.6
61880;BME280;47817;52.798;27.544;2023-04-07T00:51:08;1021.4;;;11.8;72.3
61880;BME280;47817;52.798;27.544;2023-04-07T00:56:18;1021.4;;;11.7;72.3
61880;BME280;47817;52.798;27.544;2023-04-07T01:01:06;1021.4;;;11.7;72.5
61880;BME280;47817;52.798;27.544;2023-04-07T01:06:43;1021.4;;;11.8;72.4
61880;BME280;47817;52.798;27.544;2023-04-07T01:11:27;1021.4;;;11.9;72.3
61880;BME280;47817;52.798;27.544;2023-04-07T01:16:08;1021.4;;;11.9;72.2
61880;BME280;47817;52.798;27.544;2023-04-07T01:21:16;1021.4;;;11.7;72.5
61880;BME280;47817;52.798;27.544;2023-04-07T01:26:03;1021.4;;;11.6;72.9
61880;BME280;47817;52.798;27.544;2023-04-07T01:31:40;1021.4;;;11.5;73
61880;BME280;47817;52.798;27.544;2023-04-07T01:36:26;1021.4;;;11.4;73.3
61880;BME280;47817;52.798;27.544;2023-04-07T01:41:06;1021.5;;;11.3;73.5
61880;BME280;47817;52.798;27.544;2023-04-07T01:46:08;1021.6;;;11.2;73.5
61880;BME280;47817;52.798;27.544;2023-04-07T01:51:06;1021.6;;;11.1;73.7
61880;BME280;47817;52.798;27.544;2023-04-07T01:56:40;1021.6;;;11;74
61880;BME280;47817;52.798;27.544;2023-04-07T02:01:26;1021.6;;;10.9;74.5
61880;BME280;47817;52.798;27.544;2023-04-07T02:05:56;1021.7;;;10.9;74.6
61880;BME280;47817;52.798;27.544;2023-04-07T02:10:56;1021.7;;;10.9;74.7
61880;BME280;47817;52.798;27.544;2023-04-07T02:15:56;1021.6;;;10.9;74.6
61880;BME280;47817;52.798;27.544;2023-04-07T02:21:40;1021.7;;;10.9;74.5
61880;BME280;47817;52.798;27.544;2023-04-07T02:26:26;1021.6;;;10.9;74.6
61880;BME280;47817;52.798;27.544;2023-04-07T02:30:56;1021.7;;;10.9;74.6
61880;BME280;47817;52.798;27.544;2023-04-07T02:35:56;1021.7;;;10.9;74.6
61880;BME280;47817;52.798;27.544;2023-04-07T02:40:56;1021.8;;;10.9;74.8
61880;BME280;47817;52.798;27.544;2023-04-07T02:46:40;1021.9;;;10.9;74.7
61880;BME280;47817;52.798;27.544;2023-04-07T02:51:26;1021.9;;;10.9;74.8
61880;BME280;47817;52.798;27.544;2023-04-07T02:56:08;1022;;;11;74.6
61880;BME280;47817;52.798;27.544;2023-04-07T03:00:56;1022;;;11.1;74.4
61880;BME280;47817;52.798;27.544;2023-04-07T03:06:06;1022;;;11.2;74.7
61880;BME280;47817;52.798;27.544;2023-04-07T03:11:40;1022;;;11.2;74.8
61880;BME280;47817;52.798;27.544;2023-04-07T03:16:26;1022;;;11.2;74.9
61880;BME280;47817;52.798;27.544;2023-04-07T03:21:08;1022.1;;;11.1;75.3
61880;BME280;47817;52.798;27.544;2023-04-07T03:25:56;1022.1;;;11;75.5
61880;BME280;47817;52.798;27.544;2023-04-07T03:30:56;1022.1;;;10.9;75.5
61880;BME280;47817;52.798;27.544;2023-04-07T03:36:28;1022.1;;;10.8;75.5
61880;BME280;47817;52.798;27.544;2023-04-07T03:41:26;1022.1;;;10.7;75.7
61880;BME280;47817;52.798;27.544;2023-04-07T03:46:06;1022.2;;;10.7;75.9
61880;BME280;47817;52.798;27.544;2023-04-07T03:51:19;1022.2;;;10.7;75.8
61880;BME280;47817;52.798;27.544;2023-04-07T03:55:56;1022.2;;;10.6;75.9
61880;BME280;47817;52.798;27.544;2023-04-07T04:01:40;1022.3;;;10.6;76.1
61880;BME280;47817;52.798;27.544;2023-04-07T04:05:56;1022.4;;;10.6;76.3
61880;BME280;47817;52.798;27.544;2023-04-07T04:11:18;1022.4;;;10.6;76.4
61880;BME280;47817;52.798;27.544;2023-04-07T04:16:08;1022.4;;;10.6;76.2
61880;BME280;47817;52.798;27.544;2023-04-07T04:20:56;1022.5;;;10.7;76.2
61880;BME280;47817;52.798;27.544;2023-04-07T04:26:40;1022.5;;;10.7;76
61880;BME280;47817;52.798;27.544;2023-04-07T04:31:26;1022.6;;;11;75.8
61880;BME280;47817;52.798;27.544;2023-04-07T04:36:08;1022.6;;;11.3;75.2
61880;BME280;47817;52.798;27.544;2023-04-07T04:40:56;1022.7;;;11.6;74.5
61880;BME280;47817;52.798;27.544;2023-04-07T04:46:18;1022.7;;;11.8;73.9
61880;BME280;47817;52.798;27.544;2023-04-07T04:51:40;1022.7;;;12.1;73.5
61880;BME280;47817;52.798;27.544;2023-04-07T04:56:26;1022.8;;;12.4;73
61880;BME280;47817;52.798;27.544;2023-04-07T05:01:06;1022.9;;;12.5;72.6
61880;BME280;47817;52.798;27.544;2023-04-07T05:06:18;1022.9;;;12.5;72.4
61880;BME280;47817;52.798;27.544;2023-04-07T05:10:56;1023;;;12.6;72.5
61880;BME280;47817;52.798;27.544;2023-04-07T05:16:40;1023;;;12.6;72.6
61880;BME280;47817;52.798;27.544;2023-04-07T05:21:26;1023;;;12.6;72.5
61880;BME280;47817;52.798;27.544;2023-04-07T05:25:56;1023.1;;;12.8;72.3
61880;BME280;47817;52.798;27.544;2023-04-07T05:31:06;1023.1;;;13;71.9
61880;BME280;47817;52.798;27.544;2023-04-07T05:35:56;1023.2;;;13.1;71.5
61880;BME280;47817;52.798;27.544;2023-04-07T05:41:40;1023.2;;;13.3;71.2
61880;BME280;47817;52.798;27.544;2023-04-07T05:46:26;1023.2;;;13.5;70.9
61880;BME280;47817;52.798;27.544;2023-04-07T05:50:56;1023.2;;;13.8;70.4
61880;BME280;47817;52.798;27.544;2023-04-07T05:56:18;1023.3;;;14;69.9
61880;BME280;47817;52.798;27.544;2023-04-07T06:01:06;1023.2;;;14.3;69.2
61880;BME280;47817;52.798;27.544;2023-04-07T06:06:40;1023.3;;;14.7;68.7
61880;BME280;47817;52.798;27.544;2023-04-07T06:11:26;1023.3;;;14.7;68.5
61880;BME280;47817;52.798;27.544;2023-04-07T06:16:08;1023.4;;;14.9;68.1
61880;BME280;47817;52.798;27.544;2023-04-07T06:21:18;1023.4;;;15.1;67.6
61880;BME280;47817;52.798;27.544;2023-04-07T06:25:56;1023.5;;;15.1;67.4
61880;BME280;47817;52.798;27.544;2023-04-07T06:31:06;1023.5;;;15.2;67
61880;BME280;47817;52.798;27.544;2023-04-07T06:36:06;1023.6;;;15.3;66.8
61880;BME280;47817;52.798;27.544;2023-04-07T06:41:08;1023.6;;;15.2;67
61880;BME280;47817;52.798;27.544;2023-04-07T06:46:18;1023.7;;;15.2;67
61880;BME280;47817;52.798;27.544;2023-04-07T06:51:18;1023.7;;;15.4;66.8
61880;BME280;47817;52.798;27.544;2023-04-07T06:56:40;1023.7;;;15.6;66.2
61880;BME280;47817;52.798;27.544;2023-04-07T07:01:26;1023.7;;;15.7;66
61880;BME280;47817;52.798;27.544;2023-04-07T07:05:56;1023.7;;;15.6;66
61880;BME280;47817;52.798;27.544;2023-04-07T07:11:18;1023.8;;;15.5;66.1
61880;BME280;47817;52.798;27.544;2023-04-07T07:15:56;1023.8;;;15.4;66.3
61880;BME280;47817;52.798;27.544;2023-04-07T07:21:38;1023.9;;;15.3;66.7
61880;BME280;47817;52.798;27.544;2023-04-07T07:26:26;1023.9;;;15;67.1
61880;BME280;47817;52.798;27.544;2023-04-07T07:30:56;1024;;;14.7;67.7
61880;BME280;47817;52.798;27.544;2023-04-07T07:36:06;1024;;;14.7;68
61880;BME280;47817;52.798;27.544;2023-04-07T07:41:06;1024;;;14.9;67.7
61880;BME280;47817;52.798;27.544;2023-04-07T07:46:40;1024.1;;;15.3;67
61880;BME280;47817;52.798;27.544;2023-04-07T07:51:20;1024.1;;;15.6;66.5
61880;BME280;47817;52.798;27.544;2023-04-07T07:55:56;1024.1;;;15.7;66.3
61880;BME280;47817;52.798;27.544;2023-04-07T08:01:24;1024.1;;;15.8;66.3
61880;BME280;47817;52.798;27.544;2023-04-07T08:06:08;1024.2;;;15.9;65.8
61880;BME280;47817;52.798;27.544;2023-04-07T08:11:40;1024.2;;;16.1;65.1
61880;BME280;47817;52.798;27.544;2023-04-07T08:16:26;1024.2;;;16.4;64.5
61880;BME280;47817;52.798;27.544;2023-04-07T08:21:06;1024.3;;;16.6;64.1
61880;BME280;47817;52.798;27.544;2023-04-07T08:25:56;1024.3;;;16.6;64.1
61880;BME280;47817;52.798;27.544;2023-04-07T08:31:06;1024.4;;;16.9;63.3
61880;BME280;47817;52.798;27.544;2023-04-07T08:36:38;1024.4;;;17;62.5
61880;BME280;47817;52.798;27.544;2023-04-07T08:41:27;1024.4;;;17;62.5
61880;BME280;47817;52.798;27.544;2023-04-07T08:46:18;1024.4;;;17.1;62.2
61880;BME280;47817;52.798;27.544;2023-04-07T08:51:12;1024.4;;;17.1;61.6
61880;BME280;47817;52.798;27.544;2023-04-07T08:56:18;1024.4;;;17.2;61.3
61880;BME280;47817;52.798;27.544;2023-04-07T09:01:40;1024.4;;;17.3;60.7
61880;BME280;47817;52.798;27.544;2023-04-07T09:06:26;1024.4;;;17.5;59.5
61880;BME280;47817;52.798;27.544;2023-04-07T09:10:56;1024.4;;;17.4;58.6
61880;BME280;47817;52.798;27.544;2023-04-07T09:15:57;1024.4;;;17.7;57.3
61880;BME280;47817;52.798;27.544;2023-04-07T09:20:56;1024.5;;;17.6;56.9
61880;BME280;47817;52.798;27.544;2023-04-07T09:26:40;1024.5;;;17.7;56
61880;BME280;47817;52.798;27.544;2023-04-07T09:31:42;1024.5;;;17.7;54.9
61880;BME280;47817;52.798;27.544;2023-04-07T09:35:56;1024.5;;;17.8;54.2
61880;BME280;47817;52.798;27.544;2023-04-07T09:41:18;1024.6;;;17.7;53.5
61880;BME280;47817;52.798;27.544;2023-04-07T09:46:18;1024.7;;;17.6;53.3
61880;BME280;47817;52.798;27.544;2023-04-07T09:51:46;1024.8;;;17.4;54
61880;BME280;47817;52.798;27.544;2023-04-07T09:56:26;1024.8;;;17.9;53.6
61880;BME280;47817;52.798;27.544;2023-04-07T10:01:06;1024.8;;;18.3;52.9
61880;BME280;47817;52.798;27.544;2023-04-07T10:06:18;1024.9;;;18.1;53.4
61880;BME280;47817;52.798;27.544;2023-04-07T10:10:56;1025;;;17.6;54.4
61880;BME280;47817;52.798;27.544;2023-04-07T10:16:40;1024.9;;;17.5;54.6
61880;BME280;47817;52.798;27.544;2023-04-07T10:21:26;1024.9;;;17.7;54
61880;BME280;47817;52.798;27.544;2023-04-07T10:25:56;1024.9;;;18.1;52.8
61880;BME280;47817;52.798;27.544;2023-04-07T10:30:56;1024.9;;;18.5;51.7
61880;BME280;47817;52.798;27.544;2023-04-07T10:36:19;1024.9;;;18.5;51.1
61880;BME280;47817;52.798;27.544;2023-04-07T10:41:40;1025;;;18.6;50.7
61880;BME280;47817;52.798;27.544;2023-04-07T10:46:24;1025;;;18.7;50.3
61880;BME280;47817;52.798;27.544;2023-04-07T10:51:38;1025;;;19;50.1
61880;BME280;47817;52.798;27.544;2023-04-07T10:56:08;1025;;;19.1;50
61880;BME280;47817;52.798;27.544;2023-04-07T11:01:18;1025;;;18.7;50.2
61880;BME280;47817;52.798;27.544;2023-04-07T11:06:45;1025.1;;;18.6;50
61880;BME280;47817;52.798;27.544;2023-04-07T11:11:02;1025.1;;;18.7;49.6
61880;BME280;47817;52.798;27.544;2023-04-07T11:16:06;1025.1;;;18.8;49.4
61880;BME280;47817;52.798;27.544;2023-04-07T11:21:06;1025.2;;;18.6;49.4
61880;BME280;47817;52.798;27.544;2023-04-07T11:25:58;1025.3;;;18.1;49.4
61880;BME280;47817;52.798;27.544;2023-04-07T11:31:40;1025.4;;;17.5;49.9
61880;BME280;47817;52.798;27.544;2023-04-07T11:36:27;1025.4;;;17.2;50.4
61880;BME280;47817;52.798;27.544;2023-04-07T11:41:18;1025.4;;;17.3;50.4
61880;BME280;47817;52.798;27.544;2023-04-07T11:46:18;1025.4;;;18.1;49.3
61880;BME280;47817;52.798;27.544;2023-04-07T11:50:56;1025.3;;;19;47.9
61880;BME280;47817;52.798;27.544;2023-04-07T11:56:41;1025.3;;;19.2;47.2
61880;BME280;47817;52.798;27.544;2023-04-07T12:01:37;1025.4;;;19.1;46.8
61880;BME280;47817;52.798;27.544;2023-04-07T12:06:08;1025.4;;;19.1;46.5
61880;BME280;47817;52.798;27.544;2023-04-07T12:11:01;1025.5;;;19;46.8
61880;BME280;47817;52.798;27.544;2023-04-07T12:15:57;1025.5;;;19;46.8
61880;BME280;47817;52.798;27.544;2023-04-07T12:21:40;1025.5;;;18.9;46.2
61880;BME280;47817;52.798;27.544;2023-04-07T12:26:06;1025.5;;;18.6;46.4
61880;BME280;47817;52.798;27.544;2023-04-07T12:30:56;1025.5;;;18.7;46
61880;BME280;47817;52.798;27.544;2023-04-07T12:35:56;1025.5;;;18.8;45.8
61880;BME280;47817;52.798;27.544;2023-04-07T12:41:06;1025.5;;;18.8;45.7
61880;BME280;47817;52.798;27.544;2023-04-07T12:46:40;1025.5;;;18.9;45.7
61880;BME280;47817;52.798;27.544;2023-04-07T12:51:28;1025.6;;;19;45.7
61880;BME280;47817;52.798;27.544;2023-04-07T12:56:06;1025.6;;;19.1;45.7
61880;BME280;47817;52.798;27.544;2023-04-07T13:01:06;1025.6;;;19.1;45.7
61880;BME280;47817;52.798;27.544;2023-04-07T13:06:18;1025.6;;;19.1;45.6
61880;BME280;47817;52.798;27.544;2023-04-07T13:11:44;1025.6;;;19.8;44.4
61880;BME280;47817;52.798;27.544;2023-04-07T13:16:28;1025.6;;;20.6;42.8
61880;BME280;47817;52.798;27.544;2023-04-07T13:21:42;1025.6;;;20.7;42.5
61880;BME280;47817;52.798;27.544;2023-04-07T13:26:08;1025.6;;;20.5;43.1
61880;BME280;47817;52.798;27.544;2023-04-07T13:30:56;1025.6;;;20;43.4
61880;BME280;47817;52.798;27.544;2023-04-07T13:36:44;1025.6;;;19.5;43.7
61880;BME280;47817;52.798;27.544;2023-04-07T13:41:30;1025.7;;;19;44
61880;BME280;47817;52.798;27.544;2023-04-07T13:46:44;1025.6;;;19.4;43.5
61880;BME280;47817;52.798;27.544;2023-04-07T13:51:18;1025.6;;;21.4;40.8
61880;BME280;47817;52.798;27.544;2023-04-07T13:55:56;1025.5;;;24.7;36.8
61880;BME280;47817;52.798;27.544;2023-04-07T14:01:44;1025.6;;;24.8;35.4
61880;BME280;47817;52.798;27.544;2023-04-07T14:06:28;1025.7;;;24.6;35.1
61880;BME280;47817;52.798;27.544;2023-04-07T14:11:40;1025.7;;;24.2;35.6
61880;BME280;47817;52.798;27.544;2023-04-07T14:16:19;1025.7;;;25.5;34.4
61880;BME280;47817;52.798;27.544;2023-04-07T14:20:56;1025.6;;;27.5;32.8
61880;BME280;47817;52.798;27.544;2023-04-07T14:26:44;1025.6;;;30;29.8
61880;BME280;47817;52.798;27.544;2023-04-07T14:31:28;1025.6;;;31.3;27.5
61880;BME280;47817;52.798;27.544;2023-04-07T14:36:51;1025.7;;;31;27.5
61880;BME280;47817;52.798;27.544;2023-04-07T14:41:08;1025.7;;;30.1;28.3
61880;BME280;47817;52.798;27.544;2023-04-07T14:45:56;1025.8;;;28.5;29.3
61880;BME280;47817;52.798;27.544;2023-04-07T14:51:44;1025.8;;;27.5;29.9
61880;BME280;47817;52.798;27.544;2023-04-07T14:56:30;1025.9;;;27.1;30.1
61880;BME280;47817;52.798;27.544;2023-04-07T15:01:44;1025.9;;;26.6;30.1
61880;BME280;47817;52.798;27.544;2023-04-07T15:06:06;1025.9;;;26.9;29.8
61880;BME280;47817;52.798;27.544;2023-04-07T15:11:06;1025.9;;;26.9;29.2
61880;BME280;47817;52.798;27.544;2023-04-07T15:16:44;1026;;;26;29.4
61880;BME280;47817;52.798;27.544;2023-04-07T15:20:58;1026;;;24.3;30.6
61880;BME280;47817;52.798;27.544;2023-04-07T15:26:44;1026.1;;;22.7;31.9
61880;BME280;47817;52.798;27.544;2023-04-07T15:31:18;1026.2;;;21.7;33
61880;BME280;47817;52.798;27.544;2023-04-07T15:36:08;1026.3;;;21.2;33.7
61880;BME280;47817;52.798;27.544;2023-04-07T15:41:42;1026.3;;;21.1;34.1
61880;BME280;47817;52.798;27.544;2023-04-07T15:46:30;1026.3;;;21.4;33.7
61880;BME280;47817;52.798;27.544;2023-04-07T15:51:44;1026.3;;;22.4;32.6
61880;BME280;47817;52.798;27.544;2023-04-07T15:56:18;1026.3;;;22;33.2
61880;BME280;47817;52.798;27.544;2023-04-07T16:00:56;1026.4;;;21.1;34.2
61880;BME280;47817;52.798;27.544;2023-04-07T16:06:44;1026.5;;;20.3;35
61880;BME280;47817;52.798;27.544;2023-04-07T16:11:30;1026.5;;;19.6;35.8
61880;BME280;47817;52.798;27.544;2023-04-07T16:16:42;1026.6;;;19.1;36.3
61880;BME280;47817;52.798;27.544;2023-04-07T16:20:56;1026.6;;;18.5;37
61880;BME280;47817;52.798;27.544;2023-04-07T16:26:08;1026.7;;;17.9;37.9
61880;BME280;47817;52.798;27.544;2023-04-07T16:31:44;1026.8;;;17.3;38.6
61880;BME280;47817;52.798;27.544;2023-04-07T16:36:28;1026.8;;;16.8;39.7
61880;BME280;47817;52.798;27.544;2023-04-07T16:41:44;1026.8;;;16.4;40.3
61880;BME280;47817;52.798;27.544;2023-04-07T16:46:18;1026.9;;;16;40.8
61880;BME280;47817;52.798;27.544;2023-04-07T16:50:56;1027;;;15.6;41.4
61880;BME280;47817;52.798;27.544;2023-04-07T16:56:38;1027.1;;;15.3;41.9
61880;BME280;47817;52.798;27.544;2023-04-07T17:01:30;1027.1;;;15;42.5
61880;BME280;47817;52.798;27.544;2023-04-07T17:06:30;1027.2;;;14.8;43.1
61880;BME280;47817;52.798;27.544;2023-04-07T17:11:18;1027.3;;;14.5;44.2
61880;BME280;47817;52.798;27.544;2023-04-07T17:15:56;1027.3;;;14.2;45.3
61880;BME280;47817;52.798;27.544;2023-04-07T17:21:18;1027.4;;;13.9;46.3
61880;BME280;47817;52.798;27.544;2023-04-07T17:26:26;1027.5;;;13.8;47.3
61880;BME280;47817;52.798;27.544;2023-04-07T17:31:42;1027.5;;;13.6;48
61880;BME280;47817;52.798;27.544;2023-04-07T17:36:18;1027.6;;;13.5;48.8
61880;BME280;47817;52.798;27.544;2023-04-07T17:40:56;1027.7;;;13.3;50
61880;BME280;47817;52.798;27.544;2023-04-07T17:46:38;1027.7;;;13.1;50.2
61880;BME280;47817;52.798;27.544;2023-04-07T17:51:28;1027.8;;;13;50.5
61880;BME280;47817;52.798;27.544;2023-04-07T17:56:42;1027.8;;;12.9;50.5
61880;BME280;47817;52.798;27.544;2023-04-07T18:00:56;1027.9;;;12.8;50.7
61880;BME280;47817;52.798;27.544;2023-04-07T18:06:32;1028;;;12.7;51
61880;BME280;47817;52.798;27.544;2023-04-07T18:11:40;1028;;;12.7;51.3
61880;BME280;47817;52.798;27.544;2023-04-07T18:16:26;1028;;;12.8;51.5
61880;BME280;47817;52.798;27.544;2023-04-07T18:21:40;1028.1;;;12.8;52.3
61880;BME280;47817;52.798;27.544;2023-04-07T18:26:18;1028.1;;;12.8;52.8
61880;BME280;47817;52.798;27.544;2023-04-07T18:31:22;1028.2;;;12.9;52.2
61880;BME280;47817;52.798;27.544;2023-04-07T18:36:42;1028.2;;;12.8;52.7
61880;BME280;47817;52.798;27.544;2023-04-07T18:41:29;1028.2;;;12.9;52.5
61880;BME280;47817;52.798;27.544;2023-04-07T18:46:42;1028.2;;;13;52
61880;BME280;47817;52.798;27.544;2023-04-07T18:50:56;1028.1;;;13.1;51.2
61880;BME280;47817;52.798;27.544;2023-04-07T18:55:57;1028.2;;;13.1;51.2
61880;BME280;47817;52.798;27.544;2023-04-07T19:01:42;1028.2;;;12.9;51.3
61880;BME280;47817;52.798;27.544;2023-04-07T19:06:28;1028.2;;;12.8;51.7
61880;BME280;47817;52.798;27.544;2023-04-07T19:11:40;1028.2;;;12.6;52.3
61880;BME280;47817;52.798;27.544;2023-04-07T19:16:18;1028.3;;;12.4;52.8
61880;BME280;47817;52.798;27.544;2023-04-07T19:21:06;1028.3;;;12.4;53.4
61880;BME280;47817;52.798;27.544;2023-04-07T19:26:42;1028.3;;;12.4;53.3
61880;BME280;47817;52.798;27.544;2023-04-07T19:31:28;1028.4;;;12.5;53.2
61880;BME280;47817;52.798;27.544;2023-04-07T19:36:42;1028.4;;;12.6;53.3
61880;BME280;47817;52.798;27.544;2023-04-07T19:41:06;1028.4;;;12.7;53.3
61880;BME280;47817;52.798;27.544;2023-04-07T19:46:18;1028.4;;;12.8;53.2
61880;BME280;47817;52.798;27.544;2023-04-07T19:51:42;1028.4;;;12.8;53.3
61880;BME280;47817;52.798;27.544;2023-04-07T19:56:26;1028.5;;;12.8;53.2
61880;BME280;47817;52.798;27.544;2023-04-07T20:01:28;1028.5;;;12.9;53.1
61880;BME280;47817;52.798;27.544;2023-04-07T20:05:56;1028.5;;;12.9;53
61880;BME280;47817;52.798;27.544;2023-04-07T20:10:56;1028.5;;;12.9;53.1
61880;BME280;47817;52.798;27.544;2023-04-07T20:16:42;1028.6;;;12.9;53.3
61880;BME280;47817;52.798;27.544;2023-04-07T20:21:28;1028.6;;;12.9;53.4
61880;BME280;47817;52.798;27.544;2023-04-07T20:26:42;1028.6;;;12.9;53.5
61880;BME280;47817;52.798;27.544;2023-04-07T20:30:56;1028.6;;;12.9;53.7
61880;BME280;47817;52.798;27.544;2023-04-07T20:36:20;1028.6;;;12.9;53.8
61880;BME280;47817;52.798;27.544;2023-04-07T20:41:40;1028.7;;;12.8;53.8
61880;BME280;47817;52.798;27.544;2023-04-07T20:46:26;1028.7;;;12.7;54.4
61880;BME280;47817;52.798;27.544;2023-04-07T20:51:28;1028.7;;;12.5;54.5
61880;BME280;47817;52.798;27.544;2023-04-07T20:56:18;1028.7;;;12.4;54.8
61880;BME280;47817;52.798;27.544;2023-04-07T21:01:22;1028.7;;;12.3;55
61880;BME280;47817;52.798;27.544;2023-04-07T21:06:28;1028.7;;;12.1;55.6
61880;BME280;47817;52.798;27.544;2023-04-07T21:11:08;1028.7;;;11.9;56.5
61880;BME280;47817;52.798;27.544;2023-04-07T21:16:40;1028.7;;;11.8;56.9
61880;BME280;47817;52.798;27.544;2023-04-07T21:21:18;1028.8;;;11.8;57.7
61880;BME280;47817;52.798;27.544;2023-04-07T21:25:59;1028.8;;;11.8;58.3
61880;BME280;47817;52.798;27.544;2023-04-07T21:31:42;1028.8;;;11.7;58.7
61880;BME280;47817;52.798;27.544;2023-04-07T21:36:42;1028.8;;;11.8;58.4
61880;BME280;47817;52.798;27.544;2023-04-07T21:41:36;1028.8;;;11.9;58.5
61880;BME280;47817;52.798;27.544;2023-04-07T21:46:18;1028.9;;;12;58.5
61880;BME280;47817;52.798;27.544;2023-04-07T21:50:56;1028.8;;;12.1;58.4
61880;BME280;47817;52.798;27.544;2023-04-07T21:56:18;1028.8;;;12.1;58
61880;BME280;47817;52.798;27.544;2023-04-07T22:01:28;1028.8;;;12.1;57.8
61880;BME280;47817;52.798;27.544;2023-04-07T22:06:28;1028.8;;;12;58
61880;BME280;47817;52.798;27.544;2023-04-07T22:11:34;1028.8;;;11.9;58.3
61880;BME280;47817;52.798;27.544;2023-04-07T22:15:56;1028.8;;;11.7;58.8
61880;BME280;47817;52.798;27.544;2023-04-07T22:21:34;1028.8;;;11.6;59
61880;BME280;47817;52.798;27.544;2023-04-07T22:26:42;1028.8;;;11.6;58.9
61880;BME280;47817;52.798;27.544;2023-04-07T22:31:28;1028.8;;;11.5;59.6
61880;BME280;47817;52.798;27.544;2023-04-07T22:36:34;1028.8;;;11.6;59.6
61880;BME280;47817;52.798;27.544;2023-04-07T22:41:26;1028.8;;;11.7;59.4
61880;BME280;47817;52.798;27.544;2023-04-07T22:46:06;1028.8;;;11.9;58.9
61880;BME280;47817;52.798;27.544;2023-04-07T22:51:42;1028.8;;;11.9;59
61880;BME280;47817;52.798;27.544;2023-04-07T22:56:28;1028.7;;;12;58.7
61880;BME280;47817;52.798;27.544;2023-04-07T23:01:18;1028.7;;;12.1;58.4
61880;BME280;47817;52.798;27.544;2023-04-07T23:06:08;1028.6;;;12;58.5
61880;BME280;47817;52.798;27.544;2023-04-07T23:11:08;1028.5;;;12;58.6
61880;BME280;47817;52.798;27.544;2023-04-07T23:16:42;1028.5;;;11.9;58.8
61880;BME280;47817;52.798;27.544;2023-04-07T23:21:26;1028.5;;;12;59
61880;BME280;47817;52.798;27.544;2023-04-07T23:25:56;1028.5;;;12;59.2
61880;BME280;47817;52.798;27.544;2023-04-07T23:31:06;1028.5;;;12;59.1
61880;BME280;47817;52.798;27.544;2023-04-07T23:36:18;1028.5;;;12.1;59.1
61880;BME280;47817;52.798;27.544;2023-04-07T23:41:40;1028.5;;;12.1;59
61880;BME280;47817;52.798;27.544;2023-04-07T23:46:22;1028.6;;;12;59.3
61880;BME280;47817;52.798;27.544;2023-04-07T23:51:06;1028.6;;;11.9;59.7
61880;BME280;47817;52.798;27.544;2023-04-07T23:55:56;1028.7;;;11.8;60
